createdAt,value
2022-09-28T00:02:13.792Z,1.57
2022-09-28T00:04:40.489Z,1.40
2022-09-28T00:07:07.191Z,1.47
2022-09-28T00:09:33.805Z,1.40
2022-09-28T00:12:00.546Z,1.40
2022-09-28T00:14:27.680Z,1.50
2022-09-28T00:16:54.558Z,1.77
2022-09-28T00:19:21.161Z,1.80
2022-09-28T00:21:48.056Z,1.67
2022-09-28T00:24:18.980Z,1.80
2022-09-28T00:26:52.576Z,1.80
2022-09-28T00:29:20.456Z,2.03
2022-09-28T00:31:47.270Z,1.50
2022-09-28T00:34:14.186Z,1.73
2022-09-28T00:36:42.816Z,1.40
2022-09-28T00:39:09.595Z,1.63
2022-09-28T00:41:36.231Z,1.70
2022-09-28T00:44:21.540Z,1.47
2022-09-28T00:46:51.261Z,1.73
2022-09-28T00:49:18.136Z,1.60
2022-09-28T00:51:44.865Z,1.60
2022-09-28T00:54:11.578Z,1.57
2022-09-28T00:56:38.541Z,1.47
2022-09-28T00:59:05.179Z,1.60
2022-09-28T01:01:31.933Z,1.70
2022-09-28T01:03:59.023Z,1.80
2022-09-28T01:06:27.688Z,1.67
2022-09-28T01:08:55.717Z,1.90
2022-09-28T01:11:22.877Z,1.53
2022-09-28T01:13:49.715Z,1.50
2022-09-28T01:16:23.772Z,1.40
2022-09-28T01:18:56.124Z,1.80
2022-09-28T01:21:23.211Z,1.50
2022-09-28T01:23:55.863Z,1.60
2022-09-28T01:26:25.482Z,2.17
2022-09-28T01:28:54.158Z,1.80
2022-09-28T01:31:20.844Z,1.60
2022-09-28T01:33:53.144Z,1.67
2022-09-28T01:36:21.665Z,1.93
2022-09-28T01:38:49.173Z,1.83
2022-09-28T01:44:03.687Z,1.90
2022-09-28T01:46:37.571Z,2.03
2022-09-28T01:49:18.672Z,1.77
2022-09-28T01:55:23.042Z,2.07
2022-09-28T01:58:19.870Z,2.30
2022-09-28T02:00:48.197Z,2.10
2022-09-28T02:03:20.783Z,1.93
2022-09-28T02:05:58.947Z,2.00
2022-09-28T02:08:29.571Z,1.83
2022-09-28T02:11:08.932Z,2.37
2022-09-28T02:13:37.091Z,2.00
2022-09-28T02:16:03.958Z,2.30
2022-09-28T02:18:30.731Z,2.37
2022-09-28T02:21:07.568Z,2.27
2022-09-28T02:23:35.310Z,2.50
2022-09-28T02:26:03.471Z,2.53
2022-09-28T02:28:30.845Z,3.20
2022-09-28T02:30:57.513Z,3.30
2022-09-28T02:33:24.405Z,2.50
2022-09-28T02:35:51.066Z,2.30
2022-09-28T02:38:19.650Z,2.87
2022-09-28T02:40:50.970Z,2.40
2022-09-28T02:43:24.795Z,2.07
2022-09-28T02:45:55.806Z,2.30
2022-09-28T02:48:43.098Z,2.40
2022-09-28T02:54:12.652Z,2.30
2022-09-28T02:56:42.282Z,2.40
2022-09-28T02:59:13.087Z,2.17
2022-09-28T03:02:13.430Z,2.33
2022-09-28T03:04:56.589Z,2.30
2022-09-28T03:07:29.360Z,2.20
2022-09-28T03:09:56.102Z,2.27
2022-09-28T03:12:23.611Z,2.30
2022-09-28T03:17:56.135Z,2.30
2022-09-28T03:20:22.794Z,2.30
2022-09-28T03:23:12.283Z,1.83
2022-09-28T03:25:36.234Z,2.10
2022-09-28T03:28:03.054Z,1.97
2022-09-28T03:30:34.510Z,2.17
2022-09-28T03:33:02.555Z,2.10
2022-09-28T03:35:31.732Z,1.70
2022-09-28T03:37:58.469Z,2.13
2022-09-28T03:40:27.676Z,2.20
2022-09-28T03:42:54.485Z,2.03
2022-09-28T03:45:21.273Z,2.33
2022-09-28T03:47:50.242Z,2.30
2022-09-28T03:50:18.762Z,2.53
2022-09-28T03:52:45.482Z,2.70
2022-09-28T03:55:12.217Z,2.60
2022-09-28T03:57:39.091Z,3.17
2022-09-28T04:00:06.168Z,3.40
2022-09-28T04:02:40.235Z,3.20
2022-09-28T04:05:07.529Z,2.80
2022-09-28T04:07:34.229Z,2.47
2022-09-28T04:10:01.009Z,2.40
2022-09-28T04:12:27.716Z,2.63
2022-09-28T04:14:54.503Z,3.00
2022-09-28T04:17:21.186Z,2.77
2022-09-28T04:19:48.307Z,3.20
2022-09-28T04:22:47.470Z,2.70
2022-09-28T04:25:14.344Z,2.70
2022-09-28T04:27:59.396Z,3.00
2022-09-28T04:30:26.528Z,3.83
2022-09-28T04:32:53.156Z,3.23
2022-09-28T04:35:20.148Z,3.70
2022-09-28T04:37:47.162Z,3.70
2022-09-28T04:40:14.019Z,3.57
2022-09-28T04:42:41.356Z,4.10
2022-09-28T04:45:08.500Z,4.10
2022-09-28T04:47:38.799Z,3.67
2022-09-28T04:50:24.058Z,4.20
2022-09-28T04:53:06.183Z,3.80
2022-09-28T04:55:32.889Z,4.47
2022-09-28T04:58:03.863Z,5.47
2022-09-28T05:03:38.330Z,5.60
2022-09-28T05:06:37.333Z,6.60
2022-09-28T05:09:06.700Z,6.80
2022-09-28T05:11:33.844Z,5.63
2022-09-28T05:14:01.085Z,5.30
2022-09-28T05:16:31.086Z,5.27
2022-09-28T05:19:21.020Z,5.80
2022-09-28T05:21:49.608Z,4.77
2022-09-28T05:24:16.435Z,5.07
2022-09-28T05:26:49.116Z,4.53
2022-09-28T05:29:16.515Z,4.90
2022-09-28T05:31:49.115Z,5.30
2022-09-28T05:34:48.281Z,5.23
2022-09-28T05:37:21.522Z,5.53
2022-09-28T05:39:48.366Z,5.10
2022-09-28T05:42:15.087Z,5.00
2022-09-28T05:44:42.747Z,5.30
2022-09-28T05:47:11.629Z,5.17
2022-09-28T05:49:39.124Z,5.43
2022-09-28T05:52:05.783Z,5.50
2022-09-28T05:54:36.430Z,5.67
2022-09-28T05:57:04.980Z,5.40
2022-09-28T05:59:31.628Z,5.70
2022-09-28T06:01:58.415Z,5.27
2022-09-28T06:04:25.883Z,5.37
2022-09-28T06:06:52.627Z,5.73
2022-09-28T06:09:21.681Z,5.57
2022-09-28T06:12:18.347Z,5.83
2022-09-28T06:17:35.022Z,5.53
2022-09-28T06:20:43.161Z,5.90
2022-09-28T06:23:14.830Z,5.63
2022-09-28T06:25:41.825Z,6.27
2022-09-28T06:30:56.823Z,5.80
2022-09-28T06:33:25.720Z,5.90
2022-09-28T06:35:52.899Z,5.80
2022-09-28T06:38:19.612Z,6.10
2022-09-28T06:40:48.223Z,5.63
2022-09-28T06:43:15.361Z,6.37
2022-09-28T06:46:01.684Z,6.00
2022-09-28T06:48:57.969Z,5.80
2022-09-28T06:55:10.898Z,5.23
2022-09-28T07:00:33.902Z,5.60
2022-09-28T07:06:18.522Z,5.10
2022-09-28T07:12:13.758Z,5.70
2022-09-28T07:14:56.222Z,5.33
2022-09-28T07:17:24.490Z,5.27
2022-09-28T07:19:55.873Z,5.27
2022-09-28T07:22:35.565Z,5.83
2022-09-28T07:25:07.430Z,5.33
2022-09-28T07:27:39.657Z,5.40
2022-09-28T07:30:15.690Z,5.83
2022-09-28T07:33:17.969Z,4.87
2022-09-28T07:35:54.039Z,5.60
2022-09-28T07:38:23.446Z,6.00
2022-09-28T07:41:08.733Z,6.13
2022-09-28T07:43:39.792Z,6.40
2022-09-28T07:46:12.324Z,5.73
2022-09-28T07:51:38.312Z,5.20
2022-09-28T07:54:39.483Z,5.13
2022-09-28T07:57:24.799Z,4.93
2022-09-28T08:03:00.298Z,4.90
2022-09-28T08:05:31.392Z,4.57
2022-09-28T08:07:59.739Z,5.50
2022-09-28T08:10:28.581Z,5.63
2022-09-28T08:13:16.496Z,4.97
2022-09-28T08:16:02.318Z,5.23
2022-09-28T08:18:40.569Z,5.47
2022-09-28T08:21:26.196Z,5.23
2022-09-28T08:26:38.608Z,6.40
2022-09-28T08:29:05.630Z,5.90
2022-09-28T08:31:50.777Z,6.00
2022-09-28T08:34:37.981Z,6.70
2022-09-28T08:37:27.541Z,6.90
2022-09-28T08:43:19.866Z,6.20
2022-09-28T08:49:30.284Z,6.57
2022-09-28T08:55:37.061Z,6.33
2022-09-28T08:58:08.944Z,7.20
2022-09-28T09:00:38.840Z,7.93
2022-09-28T09:03:07.607Z,7.47
2022-09-28T09:05:39.805Z,7.33
2022-09-28T09:08:19.000Z,6.57
2022-09-28T09:10:47.784Z,6.43
2022-09-28T09:13:18.898Z,5.97
2022-09-28T09:15:54.161Z,6.33
2022-09-28T09:18:42.169Z,7.00
2022-09-28T09:21:39.228Z,6.33
2022-09-28T09:24:27.144Z,6.30
2022-09-28T09:27:02.714Z,6.07
2022-09-28T09:29:36.494Z,6.77
2022-09-28T09:32:36.640Z,6.50
2022-09-28T09:35:05.582Z,6.77
2022-09-28T09:37:46.969Z,7.03
2022-09-28T09:40:43.080Z,6.23
2022-09-28T09:43:34.313Z,6.90
2022-09-28T09:46:39.519Z,6.97
2022-09-28T09:49:20.640Z,7.80
2022-09-28T09:52:01.112Z,7.60
2022-09-28T09:54:34.345Z,8.33
2022-09-28T09:57:07.849Z,7.50
2022-09-28T10:00:13.470Z,7.10
2022-09-28T10:02:54.463Z,7.50
2022-09-28T10:05:33.851Z,7.33
2022-09-28T10:08:03.836Z,6.13
2022-09-28T10:10:35.213Z,6.20
2022-09-28T10:13:11.006Z,6.40
2022-09-28T10:15:39.045Z,5.57
2022-09-28T10:18:14.526Z,6.27
2022-09-28T10:21:00.090Z,6.20
2022-09-28T10:23:34.498Z,6.37
2022-09-28T10:26:03.397Z,5.97
2022-09-28T10:28:33.263Z,6.07
2022-09-28T10:31:01.802Z,5.20
2022-09-28T10:33:33.297Z,5.70
2022-09-28T10:36:00.556Z,5.60
2022-09-28T10:38:27.622Z,5.73
2022-09-28T10:41:10.536Z,5.63
2022-09-28T10:44:12.983Z,6.03
2022-09-28T10:47:03.344Z,5.93
2022-09-28T10:49:44.420Z,6.27
2022-09-28T10:52:36.545Z,5.90
2022-09-28T10:55:05.960Z,10.67
2022-09-28T10:57:36.673Z,8.47
2022-09-28T11:00:14.102Z,6.83
2022-09-28T11:02:50.999Z,5.83
2022-09-28T11:05:22.073Z,5.57
2022-09-28T11:07:51.898Z,5.50
2022-09-28T11:10:32.912Z,6.10
2022-09-28T11:13:08.938Z,5.90
2022-09-28T11:15:36.320Z,5.67
2022-09-28T11:18:24.080Z,5.50
2022-09-28T11:20:51.003Z,4.40
2022-09-28T11:23:36.856Z,4.87
2022-09-28T11:26:21.694Z,4.10
2022-09-28T11:28:52.690Z,3.83
2022-09-28T11:31:29.987Z,3.80
2022-09-28T11:34:06.994Z,3.97
2022-09-28T11:37:01.719Z,3.70
2022-09-28T11:39:29.570Z,3.60
2022-09-28T11:42:02.325Z,3.70
2022-09-28T11:44:39.973Z,3.57
2022-09-28T11:47:15.637Z,3.80
2022-09-28T11:49:47.282Z,3.90
2022-09-28T11:52:38.701Z,3.90
2022-09-28T11:55:06.720Z,4.07
2022-09-28T11:57:38.281Z,3.53
2022-09-28T12:00:15.627Z,3.10
2022-09-28T12:02:50.852Z,3.13
2022-09-28T12:05:34.348Z,2.70
2022-09-28T12:08:02.640Z,2.47
2022-09-28T12:11:07.106Z,2.23
2022-09-28T12:13:57.539Z,2.30
2022-09-28T12:19:19.420Z,1.87
2022-09-28T12:21:51.284Z,1.63
2022-09-28T12:24:20.793Z,1.80
2022-09-28T12:26:49.146Z,1.57
2022-09-28T12:29:18.334Z,1.60
2022-09-28T12:31:57.081Z,1.80
2022-09-28T12:34:23.880Z,1.40
2022-09-28T12:36:50.571Z,1.43
2022-09-28T12:42:08.255Z,1.50
2022-09-28T12:44:44.285Z,1.50
2022-09-28T12:47:22.016Z,1.50
2022-09-28T12:52:38.655Z,1.30
2022-09-28T12:55:12.616Z,1.30
2022-09-28T12:57:58.298Z,1.63
2022-09-28T13:00:26.326Z,1.30
2022-09-28T13:03:07.231Z,1.60
2022-09-28T13:05:34.559Z,4.00
2022-09-28T13:08:27.717Z,1.20
2022-09-28T13:11:04.281Z,1.67
2022-09-28T13:13:34.592Z,1.27
2022-09-28T13:16:01.275Z,1.27
2022-09-28T13:18:29.934Z,1.37
2022-09-28T13:21:08.744Z,1.40
2022-09-28T13:23:42.541Z,1.30
2022-09-28T13:26:14.017Z,1.53
2022-09-28T13:28:41.317Z,1.40
2022-09-28T13:31:08.068Z,1.23
2022-09-28T13:33:36.847Z,1.30
2022-09-28T13:36:06.070Z,1.50
2022-09-28T13:38:49.875Z,1.47
2022-09-28T13:41:17.246Z,1.73
2022-09-28T13:43:48.848Z,0.90
2022-09-28T13:46:15.671Z,1.07
2022-09-28T13:48:48.592Z,1.30
2022-09-28T13:51:22.084Z,1.30
2022-09-28T13:53:58.829Z,1.23
2022-09-28T13:56:38.277Z,1.50
2022-09-28T13:59:05.323Z,1.77
2022-09-28T14:04:25.217Z,1.40
2022-09-28T14:07:10.838Z,1.43
2022-09-28T14:09:40.279Z,1.83
2022-09-28T14:12:26.384Z,1.97
2022-09-28T14:14:53.754Z,2.00
2022-09-28T14:17:30.484Z,2.23
2022-09-28T14:20:01.057Z,2.33
2022-09-28T14:22:33.775Z,1.87
2022-09-28T14:25:00.585Z,2.00
2022-09-28T14:27:46.058Z,1.90
2022-09-28T14:30:12.915Z,1.93
2022-09-28T14:32:40.366Z,1.90
2022-09-28T14:35:07.882Z,1.90
2022-09-28T14:37:55.383Z,1.63
2022-09-28T14:40:49.719Z,1.80
2022-09-28T14:43:29.158Z,2.00
2022-09-28T14:46:10.997Z,1.80
2022-09-28T14:48:49.705Z,3.83
2022-09-28T14:51:33.122Z,2.20
2022-09-28T14:54:01.006Z,1.83
2022-09-28T14:56:38.460Z,1.80
2022-09-28T14:59:05.185Z,1.90
2022-09-28T15:01:32.842Z,2.20
2022-09-28T15:04:01.622Z,1.80
2022-09-28T15:06:28.825Z,2.33
2022-09-28T15:08:55.556Z,2.00
2022-09-28T15:11:23.620Z,2.00
2022-09-28T15:13:53.338Z,1.80
2022-09-28T15:16:22.748Z,1.50
2022-09-28T15:19:08.097Z,1.73
2022-09-28T15:21:36.090Z,1.73
2022-09-28T15:24:02.778Z,1.77
2022-09-28T15:26:31.440Z,1.70
2022-09-28T15:28:58.196Z,1.40
2022-09-28T15:31:26.527Z,1.50
2022-09-28T15:34:12.208Z,1.80
2022-09-28T15:36:39.924Z,1.60
2022-09-28T15:39:16.870Z,1.80
2022-09-28T15:41:44.137Z,2.10
2022-09-28T15:44:10.782Z,2.30
2022-09-28T15:46:38.514Z,2.10
2022-09-28T15:49:05.906Z,2.20
2022-09-28T15:51:33.174Z,2.73
2022-09-28T15:53:59.941Z,3.20
2022-09-28T15:56:26.785Z,3.33
2022-09-28T15:59:08.708Z,3.07
2022-09-28T16:01:39.758Z,3.33
2022-09-28T16:04:25.119Z,2.70
2022-09-28T16:07:10.379Z,2.40
2022-09-28T16:09:58.515Z,2.70
2022-09-28T16:12:26.262Z,2.43
2022-09-28T16:14:52.900Z,2.60
2022-09-28T16:17:22.661Z,2.90
2022-09-28T16:19:49.486Z,4.33
2022-09-28T16:22:20.449Z,3.53
2022-09-28T16:24:53.577Z,3.30
2022-09-28T16:27:25.074Z,3.30
2022-09-28T16:32:56.467Z,4.00
2022-09-28T16:35:25.508Z,4.20
2022-09-28T16:38:15.237Z,5.27
2022-09-28T16:40:43.202Z,4.60
2022-09-28T16:43:15.792Z,4.73
2022-09-28T16:45:42.648Z,5.33
2022-09-28T16:48:11.157Z,4.80
2022-09-28T16:50:38.298Z,4.93
2022-09-28T16:53:49.838Z,6.83
2022-09-28T16:56:16.768Z,10.50
2022-09-28T16:58:44.280Z,9.70
2022-09-28T17:01:12.150Z,8.10
2022-09-28T17:03:42.389Z,8.57
2022-09-28T17:06:09.341Z,7.90
2022-09-28T17:08:36.296Z,6.60
2022-09-28T17:11:15.886Z,5.40
2022-09-28T17:13:45.278Z,5.53
2022-09-28T17:16:14.487Z,5.70
2022-09-28T17:18:41.535Z,6.50
2022-09-28T17:21:15.983Z,6.30
2022-09-28T17:23:43.223Z,6.07
2022-09-28T17:26:15.291Z,6.83
2022-09-28T17:28:42.067Z,5.83
2022-09-28T17:31:10.239Z,8.87
2022-09-28T17:33:37.129Z,7.40
2022-09-28T17:36:05.292Z,9.53
2022-09-28T17:38:32.543Z,10.27
2022-09-28T17:40:59.320Z,9.57
2022-09-28T17:43:26.224Z,10.30
2022-09-28T17:45:52.991Z,11.60
2022-09-28T17:48:22.976Z,11.70
2022-09-28T17:50:51.269Z,13.13
2022-09-28T17:53:17.930Z,12.37
2022-09-28T17:55:44.830Z,10.27
2022-09-28T17:58:21.149Z,10.17
2022-09-28T18:03:33.322Z,10.83
2022-09-28T18:06:06.947Z,11.03
2022-09-28T18:08:33.702Z,11.87
2022-09-28T18:11:01.674Z,11.47
2022-09-28T18:13:28.396Z,11.87
2022-09-28T18:15:55.343Z,13.60
2022-09-28T18:18:22.768Z,13.63
2022-09-28T18:23:36.097Z,30.47
2022-09-28T18:26:03.824Z,88.03
2022-09-28T18:28:31.252Z,81.23
2022-09-28T18:30:57.985Z,50.70
2022-09-28T18:36:09.040Z,32.40
2022-09-28T18:38:36.146Z,32.50
2022-09-28T18:41:29.379Z,28.67
2022-09-28T18:44:00.827Z,28.87
2022-09-28T18:46:28.216Z,18.30
2022-09-28T18:48:57.110Z,23.20
2022-09-28T18:51:24.512Z,17.63
2022-09-28T18:53:53.397Z,47.87
2022-09-28T18:56:21.663Z,35.47
2022-09-28T18:58:48.429Z,15.40
2022-09-28T19:01:33.830Z,24.30
2022-09-28T19:04:02.312Z,15.20
2022-09-28T19:06:28.991Z,17.53
2022-09-28T19:08:56.053Z,16.27
2022-09-28T19:11:22.829Z,24.57
2022-09-28T19:13:49.550Z,18.87
2022-09-28T19:16:18.159Z,17.90
2022-09-28T19:18:45.200Z,16.10
2022-09-28T19:21:12.642Z,36.43
2022-09-28T19:23:39.432Z,19.03
2022-09-28T19:26:07.015Z,20.07
2022-09-28T19:28:34.137Z,16.97
2022-09-28T19:33:33.697Z,16.30
2022-09-28T19:36:01.320Z,15.60
2022-09-28T19:38:31.634Z,14.90
2022-09-28T19:40:58.867Z,17.13
2022-09-28T19:43:25.996Z,15.17
2022-09-28T19:45:53.481Z,18.27
2022-09-28T19:48:22.030Z,18.37
2022-09-28T19:51:15.756Z,20.17
2022-09-28T19:53:42.628Z,23.73
2022-09-28T19:56:11.179Z,23.53
2022-09-28T19:58:40.759Z,25.60
2022-09-28T20:01:08.121Z,24.03
2022-09-28T20:03:35.089Z,23.73
2022-09-28T20:06:01.890Z,24.57
2022-09-28T20:08:30.186Z,25.97
2022-09-28T20:10:57.597Z,25.83
2022-09-28T20:13:24.728Z,27.53
2022-09-28T20:15:51.882Z,24.60
2022-09-28T20:18:19.151Z,22.13
2022-09-28T20:20:49.008Z,25.80
2022-09-28T20:23:16.467Z,27.70
2022-09-28T20:25:43.115Z,23.87
2022-09-28T20:28:09.820Z,26.47
2022-09-28T20:30:37.539Z,30.77
2022-09-28T20:33:07.499Z,32.97
2022-09-28T20:35:34.347Z,30.43
2022-09-28T20:38:08.156Z,30.30
2022-09-28T20:40:35.862Z,26.10
2022-09-28T20:43:02.667Z,26.50
2022-09-28T20:48:13.408Z,25.77
2022-09-28T20:53:26.115Z,29.33
2022-09-28T20:55:58.799Z,29.37
2022-09-28T20:58:25.752Z,30.43
2022-09-28T21:00:52.427Z,27.30
2022-09-28T21:03:19.111Z,26.17
2022-09-28T21:05:46.497Z,22.33
2022-09-28T21:08:14.124Z,22.00
2022-09-28T21:10:43.570Z,21.37
2022-09-28T21:13:11.234Z,18.70
2022-09-28T21:15:38.000Z,18.33
2022-09-28T21:18:04.791Z,17.13
2022-09-28T21:20:31.458Z,16.63
2022-09-28T21:22:58.599Z,17.63
2022-09-28T21:28:09.712Z,17.33
2022-09-28T21:33:20.753Z,18.57
2022-09-28T21:38:31.918Z,20.37
2022-09-28T21:40:59.311Z,19.53
2022-09-28T21:43:26.588Z,22.00
2022-09-28T21:45:53.549Z,21.63
2022-09-28T21:48:21.380Z,22.83
2022-09-28T21:50:57.303Z,22.27
2022-09-28T21:53:27.559Z,24.93
2022-09-28T21:55:54.852Z,24.23
2022-09-28T21:58:24.931Z,23.47
2022-09-28T22:00:58.257Z,21.10
2022-09-28T22:03:25.830Z,21.40
2022-09-28T22:05:52.506Z,18.03
2022-09-28T22:08:19.519Z,19.17
2022-09-28T22:10:46.382Z,21.83
2022-09-28T22:13:13.038Z,20.83
2022-09-28T22:15:39.693Z,20.07
2022-09-28T22:18:06.479Z,20.33
2022-09-28T22:20:33.187Z,22.70
2022-09-28T22:22:59.924Z,20.83
2022-09-28T22:25:26.572Z,23.93
2022-09-28T22:27:53.276Z,23.63
2022-09-28T22:30:19.937Z,20.10
2022-09-28T22:32:46.659Z,19.50
2022-09-28T22:35:13.322Z,20.83
2022-09-28T22:37:40.008Z,20.80
2022-09-28T22:40:06.874Z,21.57
2022-09-28T22:42:33.663Z,21.47
2022-09-28T22:45:00.639Z,22.80
2022-09-28T22:47:27.742Z,23.17
2022-09-28T22:49:54.446Z,21.43
2022-09-28T22:52:22.238Z,21.30
2022-09-28T22:54:51.267Z,21.67
2022-09-28T22:57:18.366Z,22.10
2022-09-28T22:59:45.093Z,22.80
2022-09-28T23:02:11.841Z,25.53
2022-09-28T23:04:38.637Z,22.50
2022-09-28T23:07:05.330Z,21.57
2022-09-28T23:09:31.915Z,22.03
2022-09-28T23:11:58.568Z,25.20
2022-09-28T23:14:25.283Z,24.70
2022-09-28T23:16:51.933Z,21.00
2022-09-28T23:19:18.609Z,18.80
2022-09-28T23:21:46.271Z,18.37
2022-09-28T23:24:12.990Z,20.43
2022-09-28T23:26:39.714Z,18.93
2022-09-28T23:29:06.408Z,19.33
2022-09-28T23:31:33.306Z,17.57
2022-09-28T23:34:00.757Z,17.13
2022-09-28T23:36:27.462Z,16.33
2022-09-28T23:38:54.075Z,15.40
2022-09-28T23:41:20.764Z,16.37
2022-09-28T23:43:47.444Z,16.37
2022-09-28T23:46:18.419Z,13.87
2022-09-28T23:48:47.529Z,13.87
2022-09-28T23:51:14.143Z,13.43
2022-09-28T23:53:40.780Z,12.50
2022-09-28T23:56:07.403Z,12.63
2022-09-28T23:58:34.110Z,12.93
